sensor_id;sensor_type;location;lat;lon;timestamp;P1;durP1;ratioP1;P2;durP2;ratioP2
10126;SDS011;13080;42.608;23.362;2023-03-04T10:11:54;19.17;;;9.57;;
10126;SDS011;13080;42.608;23.362;2023-03-04T10:14:32;20.20;;;10.20;;
10126;SDS011;13080;42.608;23.362;2023-03-04T10:17:05;17.85;;;9.23;;
10126;SDS011;13080;42.608;23.362;2023-03-04T10:19:40;21.55;;;10.05;;
10126;SDS011;13080;42.608;23.362;2023-03-04T10:22:16;18.60;;;10.32;;
10126;SDS011;13080;42.608;23.362;2023-03-04T10:24:47;23.25;;;10.48;;
10126;SDS011;13080;42.608;23.362;2023-03-04T10:27:16;18.85;;;10.13;;
10126;SDS011;13080;42.608;23.362;2023-03-04T10:29:44;17.92;;;9.75;;
10126;SDS011;13080;42.608;23.362;2023-03-04T10:34:41;20.38;;;10.10;;
10126;SDS011;13080;42.608;23.362;2023-03-04T10:37:08;15.90;;;8.95;;
10126;SDS011;13080;42.608;23.362;2023-03-04T10:39:37;21.73;;;10.52;;
10126;SDS011;13080;42.608;23.362;2023-03-04T10:42:05;19.77;;;10.23;;
10126;SDS011;13080;42.608;23.362;2023-03-04T10:44:52;20.05;;;12.18;;
10126;SDS011;13080;42.608;23.362;2023-03-04T10:49:49;21.30;;;11.48;;
10126;SDS011;13080;42.608;23.362;2023-03-04T10:52:18;30.58;;;14.90;;
10126;SDS011;13080;42.608;23.362;2023-03-04T10:54:52;24.58;;;12.88;;
10126;SDS011;13080;42.608;23.362;2023-03-04T10:57:23;26.98;;;14.98;;
10126;SDS011;13080;42.608;23.362;2023-03-04T10:59:55;24.33;;;13.77;;
10126;SDS011;13080;42.608;23.362;2023-03-04T11:02:23;26.67;;;13.63;;
10126;SDS011;13080;42.608;23.362;2023-03-04T11:04:56;25.08;;;13.15;;
10126;SDS011;13080;42.608;23.362;2023-03-04T11:07:31;30.73;;;14.65;;
10126;SDS011;13080;42.608;23.362;2023-03-04T11:10:09;29.27;;;12.90;;
10126;SDS011;13080;42.608;23.362;2023-03-04T11:12:36;21.90;;;12.43;;
10126;SDS011;13080;42.608;23.362;2023-03-04T11:15:14;22.13;;;12.40;;
10126;SDS011;13080;42.608;23.362;2023-03-04T11:17:44;23.13;;;12.73;;
10126;SDS011;13080;42.608;23.362;2023-03-04T11:20:16;27.58;;;14.25;;
10126;SDS011;13080;42.608;23.362;2023-03-04T11:22:50;27.27;;;13.35;;
10126;SDS011;13080;42.608;23.362;2023-03-04T11:25:23;23.77;;;13.05;;
10126;SDS011;13080;42.608;23.362;2023-03-04T11:27:52;23.58;;;12.80;;
10126;SDS011;13080;42.608;23.362;2023-03-04T11:30:28;22.52;;;11.40;;
10126;SDS011;13080;42.608;23.362;2023-03-04T11:33:15;23.17;;;13.27;;
10126;SDS011;13080;42.608;23.362;2023-03-04T11:35:49;31.88;;;12.70;;
10126;SDS011;13080;42.608;23.362;2023-03-04T11:38:25;23.85;;;12.43;;
10126;SDS011;13080;42.608;23.362;2023-03-04T11:40:58;20.77;;;11.98;;
10126;SDS011;13080;42.608;23.362;2023-03-04T11:43:31;26.27;;;12.85;;
10126;SDS011;13080;42.608;23.362;2023-03-04T11:46:16;21.00;;;11.32;;
10126;SDS011;13080;42.608;23.362;2023-03-04T11:48:58;21.17;;;11.30;;
10126;SDS011;13080;42.608;23.362;2023-03-04T11:51:36;21.85;;;12.27;;
10126;SDS011;13080;42.608;23.362;2023-03-04T11:54:16;25.23;;;13.07;;
10126;SDS011;13080;42.608;23.362;2023-03-04T11:56:56;23.95;;;12.18;;
10126;SDS011;13080;42.608;23.362;2023-03-04T11:59:28;22.58;;;12.15;;
10126;SDS011;13080;42.608;23.362;2023-03-04T12:02:11;32.40;;;13.90;;
10126;SDS011;13080;42.608;23.362;2023-03-04T12:04:55;24.10;;;12.98;;
10126;SDS011;13080;42.608;23.362;2023-03-04T12:10:35;25.55;;;13.75;;
10126;SDS011;13080;42.608;23.362;2023-03-04T12:13:30;26.63;;;14.68;;
10126;SDS011;13080;42.608;23.362;2023-03-04T12:16:13;24.48;;;12.70;;
10126;SDS011;13080;42.608;23.362;2023-03-04T12:18:52;25.27;;;12.93;;
10126;SDS011;13080;42.608;23.362;2023-03-04T12:21:34;19.70;;;12.40;;
10126;SDS011;13080;42.608;23.362;2023-03-04T12:27:30;27.90;;;12.80;;
10126;SDS011;13080;42.608;23.362;2023-03-04T12:30:08;24.95;;;13.63;;
10126;SDS011;13080;42.608;23.362;2023-03-04T12:32:43;22.75;;;12.82;;
10126;SDS011;13080;42.608;23.362;2023-03-04T12:35:25;24.15;;;13.45;;
10126;SDS011;13080;42.608;23.362;2023-03-04T12:38:17;24.95;;;13.05;;
10126;SDS011;13080;42.608;23.362;2023-03-04T12:40:54;20.27;;;11.93;;
10126;SDS011;13080;42.608;23.362;2023-03-04T12:43:34;25.42;;;11.88;;
10126;SDS011;13080;42.608;23.362;2023-03-04T12:46:15;26.58;;;13.30;;
10126;SDS011;13080;42.608;23.362;2023-03-04T12:48:58;24.00;;;13.15;;
10126;SDS011;13080;42.608;23.362;2023-03-04T12:51:40;27.05;;;12.90;;
10126;SDS011;13080;42.608;23.362;2023-03-04T12:54:14;26.88;;;13.98;;
10126;SDS011;13080;42.608;23.362;2023-03-04T12:56:50;24.75;;;14.23;;
10126;SDS011;13080;42.608;23.362;2023-03-04T12:59:22;26.10;;;14.48;;
10126;SDS011;13080;42.608;23.362;2023-03-04T13:01:53;22.15;;;12.90;;
10126;SDS011;13080;42.608;23.362;2023-03-04T13:04:26;24.15;;;13.52;;
10126;SDS011;13080;42.608;23.362;2023-03-04T13:07:06;30.20;;;16.08;;
10126;SDS011;13080;42.608;23.362;2023-03-04T13:09:37;27.55;;;12.93;;
10126;SDS011;13080;42.608;23.362;2023-03-04T13:12:14;23.90;;;13.57;;
10126;SDS011;13080;42.608;23.362;2023-03-04T13:17:42;23.27;;;12.55;;
10126;SDS011;13080;42.608;23.362;2023-03-04T13:20:17;24.92;;;13.00;;
10126;SDS011;13080;42.608;23.362;2023-03-04T13:22:53;23.95;;;12.75;;
10126;SDS011;13080;42.608;23.362;2023-03-04T13:25:29;23.25;;;12.45;;
10126;SDS011;13080;42.608;23.362;2023-03-04T13:28:20;25.10;;;14.02;;
10126;SDS011;13080;42.608;23.362;2023-03-04T13:33:46;19.92;;;12.38;;
10126;SDS011;13080;42.608;23.362;2023-03-04T13:47:58;24.30;;;13.43;;
10126;SDS011;13080;42.608;23.362;2023-03-04T13:50:28;24.75;;;13.05;;
10126;SDS011;13080;42.608;23.362;2023-03-04T13:52:59;25.05;;;12.93;;
10126;SDS011;13080;42.608;23.362;2023-03-04T13:55:42;21.08;;;11.70;;
10126;SDS011;13080;42.608;23.362;2023-03-04T13:58:16;25.10;;;11.85;;
10126;SDS011;13080;42.608;23.362;2023-03-04T14:00:47;23.95;;;12.48;;
10126;SDS011;13080;42.608;23.362;2023-03-04T14:03:18;30.50;;;13.65;;
10126;SDS011;13080;42.608;23.362;2023-03-04T14:08:42;25.60;;;13.75;;
10126;SDS011;13080;42.608;23.362;2023-03-04T14:11:12;23.67;;;13.10;;
10126;SDS011;13080;42.608;23.362;2023-03-04T14:13:40;28.58;;;13.27;;
10126;SDS011;13080;42.608;23.362;2023-03-04T14:16:08;25.20;;;12.52;;
10126;SDS011;13080;42.608;23.362;2023-03-04T14:18:35;25.58;;;13.52;;
10126;SDS011;13080;42.608;23.362;2023-03-04T14:21:02;27.40;;;13.90;;
10126;SDS011;13080;42.608;23.362;2023-03-04T14:23:31;20.73;;;12.90;;
10126;SDS011;13080;42.608;23.362;2023-03-04T14:26:03;23.45;;;13.25;;
10126;SDS011;13080;42.608;23.362;2023-03-04T14:28:42;25.73;;;12.90;;
10126;SDS011;13080;42.608;23.362;2023-03-04T14:31:14;26.02;;;12.45;;
10126;SDS011;13080;42.608;23.362;2023-03-04T14:33:43;22.65;;;12.75;;
10126;SDS011;13080;42.608;23.362;2023-03-04T14:36:15;27.63;;;14.02;;
10126;SDS011;13080;42.608;23.362;2023-03-04T14:38:44;20.10;;;11.52;;
10126;SDS011;13080;42.608;23.362;2023-03-04T14:41:18;24.08;;;12.27;;
10126;SDS011;13080;42.608;23.362;2023-03-04T14:43:50;21.70;;;12.68;;
10126;SDS011;13080;42.608;23.362;2023-03-04T14:46:22;24.92;;;13.55;;
10126;SDS011;13080;42.608;23.362;2023-03-04T14:48:52;21.20;;;11.55;;
10126;SDS011;13080;42.608;23.362;2023-03-04T14:51:31;22.30;;;13.13;;
10126;SDS011;13080;42.608;23.362;2023-03-04T14:54:02;21.70;;;11.95;;
10126;SDS011;13080;42.608;23.362;2023-03-04T14:56:31;21.50;;;12.38;;
10126;SDS011;13080;42.608;23.362;2023-03-04T14:59:01;23.40;;;13.13;;
10126;SDS011;13080;42.608;23.362;2023-03-04T15:01:30;22.40;;;11.63;;
10126;SDS011;13080;42.608;23.362;2023-03-04T15:03:59;20.08;;;11.70;;
10126;SDS011;13080;42.608;23.362;2023-03-04T15:06:28;23.80;;;12.32;;
10126;SDS011;13080;42.608;23.362;2023-03-04T15:08:58;22.92;;;12.32;;
10126;SDS011;13080;42.608;23.362;2023-03-04T15:11:29;25.95;;;13.05;;
10126;SDS011;13080;42.608;23.362;2023-03-04T15:13:59;21.25;;;12.25;;
10126;SDS011;13080;42.608;23.362;2023-03-04T15:16:28;22.88;;;13.20;;
10126;SDS011;13080;42.608;23.362;2023-03-04T15:19:22;22.23;;;11.77;;
10126;SDS011;13080;42.608;23.362;2023-03-04T15:21:51;20.13;;;11.90;;
10126;SDS011;13080;42.608;23.362;2023-03-04T15:24:28;24.63;;;12.75;;
10126;SDS011;13080;42.608;23.362;2023-03-04T15:26:55;29.83;;;13.82;;
10126;SDS011;13080;42.608;23.362;2023-03-04T15:29:22;22.23;;;13.13;;
10126;SDS011;13080;42.608;23.362;2023-03-04T15:31:50;25.42;;;13.57;;
10126;SDS011;13080;42.608;23.362;2023-03-04T15:34:17;23.60;;;12.43;;
10126;SDS011;13080;42.608;23.362;2023-03-04T15:36:46;22.40;;;12.85;;
10126;SDS011;13080;42.608;23.362;2023-03-04T15:39:15;22.95;;;12.73;;
10126;SDS011;13080;42.608;23.362;2023-03-04T15:41:43;23.80;;;12.90;;
10126;SDS011;13080;42.608;23.362;2023-03-04T15:44:12;24.35;;;14.43;;
10126;SDS011;13080;42.608;23.362;2023-03-04T15:46:39;23.25;;;12.88;;
10126;SDS011;13080;42.608;23.362;2023-03-04T15:49:07;23.33;;;12.65;;
10126;SDS011;13080;42.608;23.362;2023-03-04T15:51:34;23.70;;;12.98;;
10126;SDS011;13080;42.608;23.362;2023-03-04T15:54:01;24.98;;;14.10;;
10126;SDS011;13080;42.608;23.362;2023-03-04T15:56:28;26.70;;;13.55;;
10126;SDS011;13080;42.608;23.362;2023-03-04T15:58:57;23.55;;;13.70;;
10126;SDS011;13080;42.608;23.362;2023-03-04T16:01:26;24.02;;;13.05;;
10126;SDS011;13080;42.608;23.362;2023-03-04T16:03:53;26.40;;;14.48;;
10126;SDS011;13080;42.608;23.362;2023-03-04T16:06:27;26.20;;;14.65;;
10126;SDS011;13080;42.608;23.362;2023-03-04T16:08:55;26.17;;;14.50;;
10126;SDS011;13080;42.608;23.362;2023-03-04T16:11:24;24.27;;;14.50;;
10126;SDS011;13080;42.608;23.362;2023-03-04T16:13:52;23.88;;;13.93;;
10126;SDS011;13080;42.608;23.362;2023-03-04T16:16:19;22.15;;;13.48;;
10126;SDS011;13080;42.608;23.362;2023-03-04T16:18:46;22.35;;;12.07;;
10126;SDS011;13080;42.608;23.362;2023-03-04T16:21:13;25.00;;;14.02;;
10126;SDS011;13080;42.608;23.362;2023-03-04T16:23:45;24.90;;;13.35;;
10126;SDS011;13080;42.608;23.362;2023-03-04T16:26:17;25.10;;;14.00;;
10126;SDS011;13080;42.608;23.362;2023-03-04T16:28:46;24.88;;;13.57;;
10126;SDS011;13080;42.608;23.362;2023-03-04T16:31:14;25.02;;;14.40;;
10126;SDS011;13080;42.608;23.362;2023-03-04T16:33:41;25.45;;;13.60;;
10126;SDS011;13080;42.608;23.362;2023-03-04T16:36:11;27.88;;;14.73;;
10126;SDS011;13080;42.608;23.362;2023-03-04T16:38:40;28.92;;;15.05;;
10126;SDS011;13080;42.608;23.362;2023-03-04T16:41:10;29.02;;;14.93;;
10126;SDS011;13080;42.608;23.362;2023-03-04T16:43:38;27.15;;;15.13;;
10126;SDS011;13080;42.608;23.362;2023-03-04T16:46:05;27.45;;;14.55;;
10126;SDS011;13080;42.608;23.362;2023-03-04T16:48:32;28.95;;;15.68;;
10126;SDS011;13080;42.608;23.362;2023-03-04T16:50:59;26.27;;;14.90;;
10126;SDS011;13080;42.608;23.362;2023-03-04T16:53:31;24.77;;;13.98;;
10126;SDS011;13080;42.608;23.362;2023-03-04T16:56:00;33.53;;;16.70;;
10126;SDS011;13080;42.608;23.362;2023-03-04T16:58:32;29.90;;;15.13;;
10126;SDS011;13080;42.608;23.362;2023-03-04T17:00:59;27.13;;;14.40;;
10126;SDS011;13080;42.608;23.362;2023-03-04T17:03:26;29.60;;;14.43;;
10126;SDS011;13080;42.608;23.362;2023-03-04T17:05:53;28.33;;;14.70;;
10126;SDS011;13080;42.608;23.362;2023-03-04T17:08:19;29.67;;;14.98;;
10126;SDS011;13080;42.608;23.362;2023-03-04T17:10:46;27.98;;;14.40;;
10126;SDS011;13080;42.608;23.362;2023-03-04T17:13:14;30.85;;;13.82;;
10126;SDS011;13080;42.608;23.362;2023-03-04T17:15:42;26.67;;;14.77;;
10126;SDS011;13080;42.608;23.362;2023-03-04T17:18:10;29.85;;;15.10;;
10126;SDS011;13080;42.608;23.362;2023-03-04T17:20:37;27.98;;;14.43;;
10126;SDS011;13080;42.608;23.362;2023-03-04T17:23:04;26.38;;;14.35;;
10126;SDS011;13080;42.608;23.362;2023-03-04T17:25:31;26.90;;;14.32;;
10126;SDS011;13080;42.608;23.362;2023-03-04T17:27:58;28.45;;;14.50;;
10126;SDS011;13080;42.608;23.362;2023-03-04T17:30:24;30.23;;;16.60;;
10126;SDS011;13080;42.608;23.362;2023-03-04T17:32:53;39.35;;;21.90;;
10126;SDS011;13080;42.608;23.362;2023-03-04T17:35:20;39.13;;;20.25;;
10126;SDS011;13080;42.608;23.362;2023-03-04T17:37:47;32.72;;;17.65;;
10126;SDS011;13080;42.608;23.362;2023-03-04T17:40:13;30.10;;;14.25;;
10126;SDS011;13080;42.608;23.362;2023-03-04T17:42:40;31.48;;;14.88;;
10126;SDS011;13080;42.608;23.362;2023-03-04T17:45:08;29.10;;;13.68;;
10126;SDS011;13080;42.608;23.362;2023-03-04T17:47:35;28.52;;;14.25;;
10126;SDS011;13080;42.608;23.362;2023-03-04T17:50:06;30.58;;;15.00;;
10126;SDS011;13080;42.608;23.362;2023-03-04T17:52:33;37.75;;;19.13;;
10126;SDS011;13080;42.608;23.362;2023-03-04T17:55:00;31.42;;;17.33;;
10126;SDS011;13080;42.608;23.362;2023-03-04T17:57:27;29.60;;;16.70;;
10126;SDS011;13080;42.608;23.362;2023-03-04T17:59:54;31.70;;;16.42;;
10126;SDS011;13080;42.608;23.362;2023-03-04T18:02:21;31.52;;;16.52;;
10126;SDS011;13080;42.608;23.362;2023-03-04T18:04:48;32.05;;;16.55;;
10126;SDS011;13080;42.608;23.362;2023-03-04T18:07:16;36.40;;;18.08;;
10126;SDS011;13080;42.608;23.362;2023-03-04T18:09:43;34.58;;;19.00;;
10126;SDS011;13080;42.608;23.362;2023-03-04T18:12:11;42.47;;;19.02;;
10126;SDS011;13080;42.608;23.362;2023-03-04T18:14:38;38.25;;;18.65;;
10126;SDS011;13080;42.608;23.362;2023-03-04T18:17:05;35.42;;;18.65;;
10126;SDS011;13080;42.608;23.362;2023-03-04T18:19:32;55.80;;;27.85;;
10126;SDS011;13080;42.608;23.362;2023-03-04T18:21:59;46.95;;;21.08;;
10126;SDS011;13080;42.608;23.362;2023-03-04T18:24:27;44.58;;;25.13;;
10126;SDS011;13080;42.608;23.362;2023-03-04T18:26:54;41.22;;;19.73;;
10126;SDS011;13080;42.608;23.362;2023-03-04T18:29:21;36.83;;;19.30;;
10126;SDS011;13080;42.608;23.362;2023-03-04T18:31:47;36.15;;;17.77;;
10126;SDS011;13080;42.608;23.362;2023-03-04T18:34:14;35.15;;;17.38;;
10126;SDS011;13080;42.608;23.362;2023-03-04T18:36:41;29.52;;;15.88;;
10126;SDS011;13080;42.608;23.362;2023-03-04T18:39:08;36.63;;;18.73;;
10126;SDS011;13080;42.608;23.362;2023-03-04T18:41:36;37.20;;;18.83;;
10126;SDS011;13080;42.608;23.362;2023-03-04T18:44:03;36.22;;;17.90;;
10126;SDS011;13080;42.608;23.362;2023-03-04T18:46:30;30.90;;;14.80;;
10126;SDS011;13080;42.608;23.362;2023-03-04T18:49:04;31.58;;;15.75;;
10126;SDS011;13080;42.608;23.362;2023-03-04T18:51:34;31.92;;;16.83;;
10126;SDS011;13080;42.608;23.362;2023-03-04T18:54:00;33.13;;;16.92;;
10126;SDS011;13080;42.608;23.362;2023-03-04T18:56:28;34.22;;;16.88;;
10126;SDS011;13080;42.608;23.362;2023-03-04T18:59:03;33.42;;;17.27;;
10126;SDS011;13080;42.608;23.362;2023-03-04T19:01:32;33.47;;;16.55;;
10126;SDS011;13080;42.608;23.362;2023-03-04T19:03:59;36.78;;;16.02;;
10126;SDS011;13080;42.608;23.362;2023-03-04T19:06:29;28.30;;;14.82;;
10126;SDS011;13080;42.608;23.362;2023-03-04T19:08:57;31.58;;;14.77;;
10126;SDS011;13080;42.608;23.362;2023-03-04T19:11:24;30.88;;;15.25;;
10126;SDS011;13080;42.608;23.362;2023-03-04T19:13:51;34.17;;;15.90;;
10126;SDS011;13080;42.608;23.362;2023-03-04T19:16:19;31.25;;;16.10;;
10126;SDS011;13080;42.608;23.362;2023-03-04T19:18:46;30.55;;;16.30;;
10126;SDS011;13080;42.608;23.362;2023-03-04T19:21:13;27.13;;;14.43;;
10126;SDS011;13080;42.608;23.362;2023-03-04T19:23:40;31.90;;;15.88;;
10126;SDS011;13080;42.608;23.362;2023-03-04T19:26:07;30.42;;;15.88;;
10126;SDS011;13080;42.608;23.362;2023-03-04T19:28:34;27.90;;;14.10;;
10126;SDS011;13080;42.608;23.362;2023-03-04T19:31:03;34.47;;;15.63;;
10126;SDS011;13080;42.608;23.362;2023-03-04T19:33:31;29.63;;;14.43;;
10126;SDS011;13080;42.608;23.362;2023-03-04T19:36:00;26.02;;;13.38;;
10126;SDS011;13080;42.608;23.362;2023-03-04T19:38:27;23.65;;;13.48;;
10126;SDS011;13080;42.608;23.362;2023-03-04T19:40:54;25.85;;;12.55;;
10126;SDS011;13080;42.608;23.362;2023-03-04T19:43:21;22.35;;;12.25;;
10126;SDS011;13080;42.608;23.362;2023-03-04T19:45:51;28.42;;;12.32;;
10126;SDS011;13080;42.608;23.362;2023-03-04T19:48:18;21.95;;;11.65;;
10126;SDS011;13080;42.608;23.362;2023-03-04T19:50:46;25.58;;;11.98;;
10126;SDS011;13080;42.608;23.362;2023-03-04T19:53:13;26.33;;;13.45;;
10126;SDS011;13080;42.608;23.362;2023-03-04T19:55:42;21.00;;;11.88;;
10126;SDS011;13080;42.608;23.362;2023-03-04T19:58:09;20.50;;;12.40;;
10126;SDS011;13080;42.608;23.362;2023-03-04T20:00:36;24.25;;;12.73;;
10126;SDS011;13080;42.608;23.362;2023-03-04T20:03:03;26.20;;;12.80;;
10126;SDS011;13080;42.608;23.362;2023-03-04T20:05:31;21.25;;;12.02;;
10126;SDS011;13080;42.608;23.362;2023-03-04T20:08:00;19.10;;;10.95;;
10126;SDS011;13080;42.608;23.362;2023-03-04T20:10:29;24.17;;;11.85;;
10126;SDS011;13080;42.608;23.362;2023-03-04T20:12:56;20.65;;;11.52;;
10126;SDS011;13080;42.608;23.362;2023-03-04T20:15:23;19.50;;;12.07;;
10126;SDS011;13080;42.608;23.362;2023-03-04T20:17:50;19.70;;;12.15;;
10126;SDS011;13080;42.608;23.362;2023-03-04T20:20:17;23.70;;;12.23;;
10126;SDS011;13080;42.608;23.362;2023-03-04T20:22:43;25.20;;;12.50;;
10126;SDS011;13080;42.608;23.362;2023-03-04T20:25:12;23.52;;;13.10;;
10126;SDS011;13080;42.608;23.362;2023-03-04T20:27:38;30.65;;;14.70;;
10126;SDS011;13080;42.608;23.362;2023-03-04T20:30:05;28.52;;;14.75;;
10126;SDS011;13080;42.608;23.362;2023-03-04T20:32:33;31.80;;;14.20;;
10126;SDS011;13080;42.608;23.362;2023-03-04T20:35:00;26.42;;;14.05;;
10126;SDS011;13080;42.608;23.362;2023-03-04T20:37:26;27.83;;;13.77;;
10126;SDS011;13080;42.608;23.362;2023-03-04T20:39:53;25.30;;;13.00;;
10126;SDS011;13080;42.608;23.362;2023-03-04T20:42:23;28.58;;;14.25;;
10126;SDS011;13080;42.608;23.362;2023-03-04T20:44:50;31.85;;;16.50;;
10126;SDS011;13080;42.608;23.362;2023-03-04T20:47:17;32.15;;;16.95;;
10126;SDS011;13080;42.608;23.362;2023-03-04T20:49:43;41.90;;;19.77;;
10126;SDS011;13080;42.608;23.362;2023-03-04T20:52:10;42.78;;;19.90;;
10126;SDS011;13080;42.608;23.362;2023-03-04T20:54:37;36.55;;;17.35;;
10126;SDS011;13080;42.608;23.362;2023-03-04T20:57:04;37.03;;;18.85;;
10126;SDS011;13080;42.608;23.362;2023-03-04T20:59:33;49.72;;;24.60;;
10126;SDS011;13080;42.608;23.362;2023-03-04T21:02:01;47.08;;;23.65;;
10126;SDS011;13080;42.608;23.362;2023-03-04T21:04:29;46.88;;;24.30;;
10126;SDS011;13080;42.608;23.362;2023-03-04T21:06:58;46.83;;;21.23;;
10126;SDS011;13080;42.608;23.362;2023-03-04T21:09:25;40.70;;;22.60;;
10126;SDS011;13080;42.608;23.362;2023-03-04T21:11:52;46.10;;;23.02;;
10126;SDS011;13080;42.608;23.362;2023-03-04T21:14:20;48.30;;;21.30;;
10126;SDS011;13080;42.608;23.362;2023-03-04T21:16:50;42.30;;;21.10;;
10126;SDS011;13080;42.608;23.362;2023-03-04T21:19:19;44.53;;;20.27;;
10126;SDS011;13080;42.608;23.362;2023-03-04T21:21:48;44.47;;;20.17;;
10126;SDS011;13080;42.608;23.362;2023-03-04T21:24:17;39.80;;;20.05;;
10126;SDS011;13080;42.608;23.362;2023-03-04T21:26:45;36.03;;;19.42;;
10126;SDS011;13080;42.608;23.362;2023-03-04T21:29:12;40.42;;;17.75;;
10126;SDS011;13080;42.608;23.362;2023-03-04T21:31:40;35.28;;;17.63;;
10126;SDS011;13080;42.608;23.362;2023-03-04T21:34:13;38.35;;;17.80;;
10126;SDS011;13080;42.608;23.362;2023-03-04T21:36:42;38.95;;;18.20;;
10126;SDS011;13080;42.608;23.362;2023-03-04T21:39:12;41.55;;;21.55;;
10126;SDS011;13080;42.608;23.362;2023-03-04T21:41:40;42.78;;;20.63;;
10126;SDS011;13080;42.608;23.362;2023-03-04T21:44:07;41.83;;;19.42;;
10126;SDS011;13080;42.608;23.362;2023-03-04T21:46:34;43.33;;;18.40;;
10126;SDS011;13080;42.608;23.362;2023-03-04T21:49:01;36.08;;;18.33;;
10126;SDS011;13080;42.608;23.362;2023-03-04T21:51:29;39.38;;;20.25;;
10126;SDS011;13080;42.608;23.362;2023-03-04T21:53:56;41.00;;;18.73;;
10126;SDS011;13080;42.608;23.362;2023-03-04T21:56:23;39.25;;;19.75;;
10126;SDS011;13080;42.608;23.362;2023-03-04T21:58:50;49.70;;;22.02;;
10126;SDS011;13080;42.608;23.362;2023-03-04T22:01:17;59.85;;;27.60;;
10126;SDS011;13080;42.608;23.362;2023-03-04T22:03:45;54.38;;;26.15;;
10126;SDS011;13080;42.608;23.362;2023-03-04T22:06:13;58.30;;;26.75;;
10126;SDS011;13080;42.608;23.362;2023-03-04T22:08:42;51.63;;;23.90;;
10126;SDS011;13080;42.608;23.362;2023-03-04T22:11:10;46.53;;;21.10;;
10126;SDS011;13080;42.608;23.362;2023-03-04T22:13:37;41.90;;;20.92;;
10126;SDS011;13080;42.608;23.362;2023-03-04T22:16:04;45.95;;;22.98;;
10126;SDS011;13080;42.608;23.362;2023-03-04T22:18:31;43.40;;;20.10;;
10126;SDS011;13080;42.608;23.362;2023-03-04T22:20:59;43.15;;;20.27;;
10126;SDS011;13080;42.608;23.362;2023-03-04T22:23:26;38.50;;;19.40;;
10126;SDS011;13080;42.608;23.362;2023-03-04T22:25:54;37.53;;;18.88;;
10126;SDS011;13080;42.608;23.362;2023-03-04T22:28:23;37.35;;;19.75;;
10126;SDS011;13080;42.608;23.362;2023-03-04T22:30:52;37.75;;;18.48;;
10126;SDS011;13080;42.608;23.362;2023-03-04T22:33:19;39.83;;;19.15;;
10126;SDS011;13080;42.608;23.362;2023-03-04T22:35:46;31.95;;;16.20;;
10126;SDS011;13080;42.608;23.362;2023-03-04T22:38:13;36.78;;;16.50;;
10126;SDS011;13080;42.608;23.362;2023-03-04T22:40:39;34.38;;;18.23;;
10126;SDS011;13080;42.608;23.362;2023-03-04T22:43:08;33.97;;;15.85;;
10126;SDS011;13080;42.608;23.362;2023-03-04T22:45:34;35.08;;;16.40;;
10126;SDS011;13080;42.608;23.362;2023-03-04T22:48:01;29.13;;;15.20;;
10126;SDS011;13080;42.608;23.362;2023-03-04T22:50:28;42.25;;;18.42;;
10126;SDS011;13080;42.608;23.362;2023-03-04T22:52:55;47.42;;;20.98;;
10126;SDS011;13080;42.608;23.362;2023-03-04T22:55:22;46.97;;;20.20;;
10126;SDS011;13080;42.608;23.362;2023-03-04T22:57:49;37.03;;;19.60;;
10126;SDS011;13080;42.608;23.362;2023-03-04T23:00:18;35.85;;;19.40;;
10126;SDS011;13080;42.608;23.362;2023-03-04T23:02:47;38.47;;;19.55;;
10126;SDS011;13080;42.608;23.362;2023-03-04T23:05:15;35.30;;;17.52;;
10126;SDS011;13080;42.608;23.362;2023-03-04T23:07:44;38.78;;;18.60;;
10126;SDS011;13080;42.608;23.362;2023-03-04T23:10:13;33.47;;;15.35;;
10126;SDS011;13080;42.608;23.362;2023-03-04T23:12:41;42.45;;;17.38;;
10126;SDS011;13080;42.608;23.362;2023-03-04T23:15:09;41.47;;;16.65;;
10126;SDS011;13080;42.608;23.362;2023-03-04T23:17:39;31.00;;;16.23;;
10126;SDS011;13080;42.608;23.362;2023-03-04T23:20:07;32.50;;;15.20;;
10126;SDS011;13080;42.608;23.362;2023-03-04T23:22:36;35.25;;;17.30;;
10126;SDS011;13080;42.608;23.362;2023-03-04T23:25:03;39.28;;;17.88;;
10126;SDS011;13080;42.608;23.362;2023-03-04T23:27:30;36.65;;;18.35;;
10126;SDS011;13080;42.608;23.362;2023-03-04T23:29:57;42.25;;;21.98;;
10126;SDS011;13080;42.608;23.362;2023-03-04T23:32:25;40.05;;;20.60;;
10126;SDS011;13080;42.608;23.362;2023-03-04T23:34:53;43.38;;;18.27;;
10126;SDS011;13080;42.608;23.362;2023-03-04T23:37:20;34.38;;;17.00;;
10126;SDS011;13080;42.608;23.362;2023-03-04T23:39:47;34.90;;;17.45;;
10126;SDS011;13080;42.608;23.362;2023-03-04T23:42:14;36.50;;;17.33;;
10126;SDS011;13080;42.608;23.362;2023-03-04T23:44:41;35.47;;;16.92;;
10126;SDS011;13080;42.608;23.362;2023-03-04T23:47:08;32.00;;;15.30;;
10126;SDS011;13080;42.608;23.362;2023-03-04T23:49:35;36.42;;;17.17;;
10126;SDS011;13080;42.608;23.362;2023-03-04T23:52:03;29.23;;;15.45;;
10126;SDS011;13080;42.608;23.362;2023-03-04T23:54:30;34.05;;;16.30;;
10126;SDS011;13080;42.608;23.362;2023-03-04T23:56:58;31.60;;;15.90;;
10126;SDS011;13080;42.608;23.362;2023-03-04T23:59:24;31.95;;;15.98;;
